Time,TemperatureF,DewpointF,PressureIn,WindDirection,WindDirectionDegrees,WindSpeedMPH,WindSpeedGustMPH,Humidity,HourlyPrecipIn,Conditions,Clouds,dailyrainin,SoftwareType,DateUTC
2013-10-18 00:14:00,27.8,16.0,29.87,SSE,159,0.0,3.0,61,0.00,,,0.00,weatherlink.com 1.10,2013-10-18 06:14:00,
2013-10-18 00:29:00,27.8,16.0,29.86,South,185,0.0,0.0,62,0.00,,,0.00,weatherlink.com 1.10,2013-10-18 06:29:00,
2013-10-18 00:46:00,27.2,16.0,29.86,East,94,0.0,2.0,64,0.00,,,0.00,weatherlink.com 1.10,2013-10-18 06:46:00,
2013-10-18 00:59:00,26.6,17.0,29.86,ESE,108,2.0,3.0,67,0.00,,,0.00,weatherlink.com 1.10,2013-10-18 06:59:00,
2013-10-18 01:14:00,26.1,17.0,29.86,SSE,158,3.0,3.0,69,0.00,,,0.00,weatherlink.com 1.10,2013-10-18 07:14:00,
2013-10-18 01:29:00,26.3,18.0,29.86,South,173,4.0,4.0,70,0.00,,,0.00,weatherlink.com 1.10,2013-10-18 07:29:00,
2013-10-18 01:44:00,26.3,18.0,29.85,ESE,115,2.0,7.0,70,0.00,,,0.00,weatherlink.com 1.10,2013-10-18 07:44:00,
2013-10-18 01:59:00,26.2,18.0,29.85,ESE,119,0.0,3.0,70,0.00,,,0.00,weatherlink.com 1.10,2013-10-18 07:59:00,
2013-10-18 02:14:00,25.6,17.0,29.85,SE,134,0.0,0.0,71,0.00,,,0.00,weatherlink.com 1.10,2013-10-18 08:14:00,
2013-10-18 02:29:00,25.0,17.0,29.85,ESE,108,0.0,0.0,72,0.00,,,0.00,weatherlink.com 1.10,2013-10-18 08:29:00,
2013-10-18 02:44:00,24.6,16.0,29.86,ESE,108,0.0,0.0,71,0.00,,,0.00,weatherlink.com 1.10,2013-10-18 08:44:00,
2013-10-18 02:59:00,24.3,17.0,29.86,ESE,109,0.0,0.0,73,0.00,,,0.00,weatherlink.com 1.10,2013-10-18 08:59:00,
2013-10-18 03:14:00,24.3,18.0,29.86,ESE,116,0.0,4.0,76,0.00,,,0.00,weatherlink.com 1.10,2013-10-18 09:14:00,
2013-10-18 03:30:00,25.2,19.0,29.85,South,187,0.0,9.0,76,0.00,,,0.00,weatherlink.com 1.10,2013-10-18 09:30:00,
2013-10-18 03:44:00,26.7,19.0,29.86,SSW,198,0.0,0.0,74,0.00,,,0.00,weatherlink.com 1.10,2013-10-18 09:44:00,
2013-10-18 03:59:00,27.6,20.0,29.86,WSW,257,0.0,5.0,74,0.00,,,0.00,weatherlink.com 1.10,2013-10-18 09:59:00,
2013-10-18 04:14:00,27.2,20.0,29.86,NW,321,0.0,5.0,73,0.00,,,0.00,weatherlink.com 1.10,2013-10-18 10:14:00,
2013-10-18 04:29:00,25.4,19.0,29.85,NW,323,0.0,0.0,77,0.00,,,0.00,weatherlink.com 1.10,2013-10-18 10:29:00,
2013-10-18 04:44:00,24.0,19.0,29.86,NW,323,0.0,0.0,82,0.00,,,0.00,weatherlink.com 1.10,2013-10-18 10:44:00,
2013-10-18 04:59:00,23.9,20.0,29.87,NW,323,0.0,0.0,83,0.00,,,0.00,weatherlink.com 1.10,2013-10-18 10:59:00,
2013-10-18 05:14:00,24.2,20.0,29.87,NW,323,0.0,0.0,83,0.00,,,0.00,weatherlink.com 1.10,2013-10-18 11:14:00,
2013-10-18 05:29:00,24.6,20.0,29.87,NW,323,0.0,0.0,83,0.00,,,0.00,weatherlink.com 1.10,2013-10-18 11:29:00,
2013-10-18 05:44:00,24.1,20.0,29.87,NW,323,0.0,0.0,83,0.00,,,0.00,weatherlink.com 1.10,2013-10-18 11:44:00,
2013-10-18 06:00:00,23.4,20.0,29.88,NW,323,0.0,0.0,85,0.00,,,0.00,weatherlink.com 1.10,2013-10-18 12:00:00,
2013-10-18 06:15:00,23.4,20.0,29.89,NW,323,0.0,0.0,86,0.00,,,0.00,weatherlink.com 1.10,2013-10-18 12:15:00,
2013-10-18 06:30:00,23.3,20.0,29.89,WSW,257,0.0,0.0,86,0.00,,,0.00,weatherlink.com 1.10,2013-10-18 12:30:00,
2013-10-18 06:45:00,22.8,19.0,29.89,WSW,257,0.0,0.0,86,0.00,,,0.00,weatherlink.com 1.10,2013-10-18 12:45:00,
2013-10-18 07:00:00,22.6,19.0,29.90,WSW,257,0.0,0.0,87,0.00,,,0.00,weatherlink.com 1.10,2013-10-18 13:00:00,
2013-10-18 07:15:00,22.8,19.0,29.91,WSW,254,0.0,4.0,85,0.00,,,0.00,weatherlink.com 1.10,2013-10-18 13:15:00,
2013-10-18 07:30:00,23.8,16.0,29.91,WNW,287,2.0,10.0,71,0.00,,,0.00,weatherlink.com 1.10,2013-10-18 13:30:00,
2013-10-18 07:46:00,23.9,17.0,29.93,North,355,1.0,7.0,75,0.00,,,0.00,weatherlink.com 1.10,2013-10-18 13:46:00,
2013-10-18 08:01:00,23.7,19.0,29.94,NNW,336,0.0,3.0,82,0.00,,,0.00,weatherlink.com 1.10,2013-10-18 14:01:00,
2013-10-18 08:17:00,24.4,20.0,29.95,NNW,329,1.0,6.0,82,0.00,,,0.00,weatherlink.com 1.10,2013-10-18 14:17:00,
2013-10-18 08:30:00,25.2,20.0,29.96,NNW,339,1.0,7.0,81,0.00,,,0.00,weatherlink.com 1.10,2013-10-18 14:30:00,
2013-10-18 08:45:00,25.5,19.0,29.96,WNW,298,0.0,6.0,77,0.00,,,0.00,weatherlink.com 1.10,2013-10-18 14:45:00,
2013-10-18 09:00:00,25.7,18.0,29.97,NW,314,0.0,5.0,74,0.00,,,0.00,weatherlink.com 1.10,2013-10-18 15:00:00,
2013-10-18 09:15:00,26.6,17.0,29.98,North,10,0.0,5.0,68,0.00,,,0.00,weatherlink.com 1.10,2013-10-18 15:15:00,
2013-10-18 09:30:00,27.9,16.0,29.98,ENE,70,0.0,8.0,62,0.00,,,0.00,weatherlink.com 1.10,2013-10-18 15:30:00,
2013-10-18 09:45:00,29.4,15.0,29.99,North,11,0.0,8.0,56,0.00,,,0.00,weatherlink.com 1.10,2013-10-18 15:45:00,
2013-10-18 10:00:00,30.0,15.0,29.99,NNW,331,0.0,8.0,54,0.00,,,0.00,weatherlink.com 1.10,2013-10-18 16:00:00,
2013-10-18 10:15:00,30.6,14.0,30.00,NW,310,0.0,7.0,51,0.00,,,0.00,weatherlink.com 1.10,2013-10-18 16:15:00,
2013-10-18 10:30:00,30.5,13.0,30.00,NNW,338,3.0,7.0,49,0.00,,,0.00,weatherlink.com 1.10,2013-10-18 16:30:00,
2013-10-18 10:45:00,31.8,14.0,30.00,WNW,288,0.0,11.0,47,0.00,,,0.00,weatherlink.com 1.10,2013-10-18 16:45:00,
2013-10-18 11:00:00,31.5,11.0,30.01,NW,321,5.0,9.0,43,0.00,,,0.00,weatherlink.com 1.10,2013-10-18 17:00:00,
2013-10-18 11:16:00,31.7,11.0,30.01,NW,306,4.0,9.0,42,0.00,,,0.00,weatherlink.com 1.10,2013-10-18 17:16:00,
2013-10-18 11:31:00,32.5,11.0,30.01,West,276,0.0,6.0,40,0.00,,,0.00,weatherlink.com 1.10,2013-10-18 17:31:00,
2013-10-18 11:46:00,33.5,7.0,30.01,WNW,291,0.0,6.0,33,0.00,,,0.00,weatherlink.com 1.10,2013-10-18 17:46:00,
2013-10-18 12:01:00,35.0,7.0,30.01,West,259,2.0,9.0,31,0.00,,,0.00,weatherlink.com 1.10,2013-10-18 18:01:00,
2013-10-18 12:16:00,35.3,9.0,30.00,NW,304,0.0,10.0,33,0.00,,,0.00,weatherlink.com 1.10,2013-10-18 18:16:00,
2013-10-18 12:31:00,35.3,6.0,30.01,SW,234,0.0,10.0,29,0.00,,,0.00,weatherlink.com 1.10,2013-10-18 18:31:00,
2013-10-18 12:46:00,35.7,5.0,30.01,West,274,0.0,10.0,28,0.00,,,0.00,weatherlink.com 1.10,2013-10-18 18:46:00,
2013-10-18 13:01:00,36.2,5.0,30.00,WNW,293,5.0,12.0,27,0.00,,,0.00,weatherlink.com 1.10,2013-10-18 19:01:00,
2013-10-18 13:16:00,37.4,7.0,29.99,West,281,1.0,8.0,28,0.00,,,0.00,weatherlink.com 1.10,2013-10-18 19:16:00,
2013-10-18 13:31:00,37.3,5.0,29.99,NW,307,0.0,14.0,26,0.00,,,0.00,weatherlink.com 1.10,2013-10-18 19:31:00,
2013-10-18 13:46:00,37.7,5.0,29.99,WSW,254,4.0,10.0,25,0.00,,,0.00,weatherlink.com 1.10,2013-10-18 19:46:00,
2013-10-18 14:01:00,37.4,4.0,29.99,West,262,5.0,9.0,24,0.00,,,0.00,weatherlink.com 1.10,2013-10-18 20:01:00,
2013-10-18 14:16:00,36.3,4.0,30.00,West,272,8.0,14.0,26,0.00,,,0.00,weatherlink.com 1.10,2013-10-18 20:16:00,
2013-10-18 14:31:00,36.6,5.0,30.00,WNW,295,4.0,16.0,26,0.00,,,0.00,weatherlink.com 1.10,2013-10-18 20:31:00,
2013-10-18 14:46:00,36.0,5.0,30.00,West,261,2.0,15.0,27,0.00,,,0.00,weatherlink.com 1.10,2013-10-18 20:46:00,
2013-10-18 15:01:00,35.8,5.0,30.00,WNW,284,9.0,18.0,27,0.00,,,0.00,weatherlink.com 1.10,2013-10-18 21:01:00,
2013-10-18 15:17:00,36.1,6.0,30.00,WSW,242,4.0,17.0,28,0.00,,,0.00,weatherlink.com 1.10,2013-10-18 21:17:00,
2013-10-18 15:32:00,36.7,6.0,30.00,West,266,3.0,13.0,28,0.00,,,0.00,weatherlink.com 1.10,2013-10-18 21:32:00,
2013-10-18 15:47:00,35.5,7.0,30.01,WSW,247,0.0,13.0,30,0.00,,,0.00,weatherlink.com 1.10,2013-10-18 21:47:00,
2013-10-18 16:02:00,35.5,7.0,30.02,NNW,329,3.0,10.0,31,0.00,,,0.00,weatherlink.com 1.10,2013-10-18 22:02:00,
2013-10-18 16:17:00,35.3,8.0,30.02,WNW,288,0.0,10.0,32,0.00,,,0.00,weatherlink.com 1.10,2013-10-18 22:17:00,
2013-10-18 16:32:00,35.4,8.0,30.04,NW,312,2.0,9.0,32,0.00,,,0.00,weatherlink.com 1.10,2013-10-18 22:32:00,
2013-10-18 16:47:00,35.0,8.0,30.05,WSW,253,1.0,7.0,33,0.00,,,0.00,weatherlink.com 1.10,2013-10-18 22:47:00,
2013-10-18 17:02:00,34.4,9.0,30.04,WNW,293,3.0,9.0,35,0.00,,,0.00,weatherlink.com 1.10,2013-10-18 23:02:00,
2013-10-18 17:17:00,33.9,8.0,30.04,West,273,4.0,14.0,34,0.00,,,0.00,weatherlink.com 1.10,2013-10-18 23:17:00,
2013-10-18 17:32:00,33.3,8.0,30.04,NW,314,0.0,9.0,35,0.00,,,0.00,weatherlink.com 1.10,2013-10-18 23:32:00,
2013-10-18 17:47:00,32.7,8.0,30.05,West,269,0.0,6.0,36,0.00,,,0.00,weatherlink.com 1.10,2013-10-18 23:47:00,
2013-10-18 18:02:00,32.1,8.0,30.05,West,281,0.0,2.0,37,0.00,,,0.00,weatherlink.com 1.10,2013-10-19 00:02:00,
2013-10-18 18:17:00,31.3,8.0,30.06,NW,319,0.0,5.0,38,0.00,,,0.00,weatherlink.com 1.10,2013-10-19 00:17:00,
2013-10-18 18:32:00,30.3,8.0,30.07,NW,319,0.0,0.0,39,0.00,,,0.00,weatherlink.com 1.10,2013-10-19 00:32:00,
2013-10-18 18:47:00,30.1,7.0,30.07,West,259,4.0,8.0,37,0.00,,,0.00,weatherlink.com 1.10,2013-10-19 00:47:00,
2013-10-18 19:02:00,29.7,7.0,30.07,West,269,0.0,5.0,38,0.00,,,0.00,weatherlink.com 1.10,2013-10-19 01:02:00,
2013-10-18 19:17:00,28.8,5.0,30.09,West,269,0.0,3.0,37,0.00,,,0.00,weatherlink.com 1.10,2013-10-19 01:17:00,
2013-10-18 19:32:00,28.9,6.0,30.10,NNW,338,0.0,4.0,37,0.00,,,0.00,weatherlink.com 1.10,2013-10-19 01:32:00,
2013-10-18 19:47:00,28.3,4.0,30.10,NNW,338,0.0,1.0,36,0.00,,,0.00,weatherlink.com 1.10,2013-10-19 01:47:00,
2013-10-18 20:02:00,28.3,4.0,30.11,WSW,242,0.0,2.0,35,0.00,,,0.00,weatherlink.com 1.10,2013-10-19 02:02:00,
2013-10-18 20:18:00,28.6,5.0,30.11,NW,314,0.0,9.0,36,0.00,,,0.00,weatherlink.com 1.10,2013-10-19 02:18:00,
2013-10-18 20:33:00,28.1,5.0,30.11,West,268,0.0,7.0,37,0.00,,,0.00,weatherlink.com 1.10,2013-10-19 02:33:00,
2013-10-18 20:48:00,27.8,4.0,30.12,West,265,0.0,6.0,36,0.00,,,0.00,weatherlink.com 1.10,2013-10-19 02:48:00,
2013-10-18 21:03:00,27.8,5.0,30.12,WSW,238,0.0,5.0,38,0.00,,,0.00,weatherlink.com 1.10,2013-10-19 03:03:00,
2013-10-18 21:17:00,27.9,5.0,30.13,West,259,0.0,3.0,37,0.00,,,0.00,weatherlink.com 1.10,2013-10-19 03:17:00,
2013-10-18 21:32:00,27.7,4.0,30.14,WSW,246,0.0,3.0,37,0.00,,,0.00,weatherlink.com 1.10,2013-10-19 03:32:00,
2013-10-18 21:47:00,27.6,4.0,30.15,WSW,251,0.0,0.0,36,0.00,,,0.00,weatherlink.com 1.10,2013-10-19 03:47:00,
2013-10-18 22:02:00,27.0,3.0,30.15,WSW,251,0.0,0.0,36,0.00,,,0.00,weatherlink.com 1.10,2013-10-19 04:02:00,
2013-10-18 22:18:00,26.2,3.0,30.16,WSW,245,0.0,4.0,37,0.00,,,0.00,weatherlink.com 1.10,2013-10-19 04:18:00,
2013-10-18 22:33:00,25.9,3.0,30.16,WSW,245,0.0,0.0,37,0.00,,,0.00,weatherlink.com 1.10,2013-10-19 04:33:00,
2013-10-18 22:48:00,26.8,2.0,30.16,West,279,0.0,9.0,35,0.00,,,0.00,weatherlink.com 1.10,2013-10-19 04:48:00,
2013-10-18 23:06:00,27.2,3.0,30.16,West,265,0.0,6.0,36,0.00,,,0.00,weatherlink.com 1.10,2013-10-19 05:06:00,
2013-10-18 23:18:00,27.3,5.0,30.16,West,271,0.0,3.0,38,0.00,,,0.00,weatherlink.com 1.10,2013-10-19 05:18:00,
2013-10-18 23:33:00,27.6,6.0,30.16,West,262,3.0,6.0,39,0.00,,,0.00,weatherlink.com 1.10,2013-10-19 05:33:00,
2013-10-18 23:48:00,28.2,6.0,30.16,WSW,257,0.0,4.0,39,0.00,,,0.00,weatherlink.com 1.10,2013-10-19 05:48:00,